Time;durP1;ratioP1;P1;durP2;ratioP2;P2;SDS_P1;SDS_P2;PMS_P1;PMS_P2;Temp;Humidity;BMP_temperature;BMP_pressure;BME280_temperature;BME280_humidity;BME280_pressure;Samples;Min_cycle;Max_cycle;Signal;HPM_P1;HPM_P2
2021/06/01 00:02:21;;;;;;;;;;;;;;;11.91;71.35;96905.08;1655918;86;20195;-82
2021/06/01 00:04:47;;;;;;;;;;;;;;;11.86;72.12;96906.80;1655559;86;20229;-81
2021/06/01 00:07:13;;;;;;;;;;;;;;;11.81;72.26;96898.94;1655749;86;20139;-80
2021/06/01 00:09:39;;;;;;;;;;;;;;;11.76;72.37;96900.66;1655703;85;20163;-80
2021/06/01 00:12:06;;;;;;;;;;;;;;;11.69;72.24;96891.63;1652687;86;20178;-78
2021/06/01 00:14:35;;;;;;;;;;;;;;;11.64;72.41;96893.84;1656474;86;20202;-79
2021/06/01 00:17:02;;;;;;;;;;;;;;;11.61;72.72;96892.78;1665103;85;20145;-81
2021/06/01 00:19:28;;;;;;;;;;;;;;;11.59;73.21;96893.39;1665118;86;20160;-81
2021/06/01 00:21:54;;;;;;;;;;;;;;;11.54;72.56;96895.12;1664916;85;20122;-80
2021/06/01 00:24:20;;;;;;;;;;;;;;;11.51;72.96;96886.99;1657482;86;20161;-83
2021/06/01 00:26:47;;;;;;;;;;;;;;;11.48;72.75;96889.89;1656237;87;20505;-82
2021/06/01 00:29:15;;;;;;;;;;;;;;;11.44;73.16;96884.55;1646970;87;20169;-80
2021/06/01 00:31:42;;;;;;;;;;;;;;;11.39;73.14;96893.33;1652718;86;20516;-81
2021/06/01 00:34:09;;;;;;;;;;;;;;;11.35;72.84;96890.63;1653410;85;20158;-79
2021/06/01 00:36:35;;;;;;;;;;;;;;;11.32;73.22;96890.87;1647018;87;20158;-81
2021/06/01 00:39:03;;;;;;;;;;;;;;;11.28;74.09;96892.09;1646844;87;20190;-80
2021/06/01 00:41:29;;;;;;;;;;;;;;;11.25;74.32;96891.89;1651580;87;20191;-83
2021/06/01 00:43:55;;;;;;;;;;;;;;;11.24;72.21;96895.48;1654166;86;20169;-80
2021/06/01 00:46:22;;;;;;;;;;;;;;;11.19;73.37;96896.38;1654833;85;20171;-83
2021/06/01 00:48:48;;;;;;;;;;;;;;;11.17;73.96;96901.80;1654597;87;20171;-82
2021/06/01 00:51:14;;;;;;;;;;;;;;;11.14;73.81;96903.38;1664507;84;20203;-79
2021/06/01 00:53:40;;;;;;;;;;;;;;;11.11;73.96;96898.84;1664357;85;20163;-79
2021/06/01 00:56:07;;;;;;;;;;;;;;;11.09;72.93;96894.53;1661497;84;20165;-80
2021/06/01 00:58:34;;;;;;;;;;;;;;;11.08;73.62;96889.40;1656237;86;20180;-80
2021/06/01 01:03:35;;;;;;;;;;;;;;;11.05;73.80;96892.29;1663618;86;20114;-81
2021/06/01 01:06:13;;;;;;;;;;;;;;;11.04;74.57;96889.30;1663501;86;20181;-80
2021/06/01 01:08:49;;;;;;;;;;;;;;;11.03;73.19;96892.44;1662320;86;20180;-80
2021/06/01 01:11:29;;;;;;;;;;;;;;;11.02;73.60;96896.50;1642032;86;20158;-80
2021/06/01 01:13:58;;;;;;;;;;;;;;;11.00;74.12;96894.47;1645795;86;20166;-81
2021/06/01 01:16:26;;;;;;;;;;;;;;;10.98;73.81;96893.29;1647070;87;20171;-80
2021/06/01 01:18:56;;;;;;;;;;;;;;;10.96;74.28;96894.39;1647149;87;20192;-81
2021/06/01 01:21:32;;;;;;;;;;;;;;;10.96;74.56;96886.48;1647163;86;20211;-81
2021/06/01 01:24:21;;;;;;;;;;;;;;;10.95;74.36;96877.72;1642053;86;20230;-79
2021/06/01 01:27:01;;;;;;;;;;;;;;;10.94;74.45;96879.53;1643491;87;20214;-81
2021/06/01 01:29:39;;;;;;;;;;;;;;;10.93;74.46;96883.63;1647589;87;20200;-81
2021/06/01 01:32:08;;;;;;;;;;;;;;;10.92;74.14;96884.09;1647599;86;20166;-82
2021/06/01 01:34:35;;;;;;;;;;;;;;;10.92;74.54;96880.64;1647690;86;20155;-82
2021/06/01 01:37:02;;;;;;;;;;;;;;;10.93;74.19;96880.50;1640253;87;20160;-81
2021/06/01 01:39:35;;;;;;;;;;;;;;;10.96;74.22;96885.16;1647274;87;20155;-80
2021/06/01 01:42:00;;;;;;;;;;;;;;;10.99;74.37;96880.95;1647834;85;20155;-80
2021/06/01 01:44:26;;;;;;;;;;;;;;;11.04;74.40;96877.43;1643625;86;20232;-79
2021/06/01 01:47:08;;;;;;;;;;;;;;;11.07;74.23;96871.41;1639421;87;20123;-81
2021/06/01 01:49:29;;;;;;;;;;;;;;;11.12;74.29;96876.28;1641011;84;20177;-79
2021/06/01 01:51:58;;;;;;;;;;;;;;;11.19;73.91;96881.38;1630891;87;20176;-82
2021/06/01 01:54:27;;;;;;;;;;;;;;;11.21;74.36;96881.27;1647859;87;20192;-81
2021/06/01 01:57:05;;;;;;;;;;;;;;;11.27;74.15;96876.77;1647972;87;20183;-79
2021/06/01 01:59:27;;;;;;;;;;;;;;;11.28;73.58;96878.44;1649510;85;20132;-80
2021/06/01 02:01:54;;;;;;;;;;;;;;;11.31;73.52;96882.14;1647076;87;20227;-80
2021/06/01 02:04:26;;;;;;;;;;;;;;;11.30;73.47;96876.98;1642160;87;20170;-81
2021/06/01 02:06:54;;;;;;;;;;;;;;;11.30;73.36;96880.47;1645569;87;20117;-81
2021/06/01 02:09:20;;;;;;;;;;;;;;;11.32;73.21;96884.28;1647322;86;20164;-81
2021/06/01 02:11:46;;;;;;;;;;;;;;;11.33;73.71;96870.94;1650188;85;20209;-80
2021/06/01 02:14:14;;;;;;;;;;;;;;;11.38;73.38;96877.14;1649554;86;20120;-80
2021/06/01 02:16:42;;;;;;;;;;;;;;;11.40;73.36;96876.06;1651122;87;20192;-79
2021/06/01 02:19:13;;;;;;;;;;;;;;;11.44;73.47;96870.03;1651227;86;20167;-80
2021/06/01 02:24:33;;;;;;;;;;;;;;;11.49;73.47;96870.95;1644660;87;20157;-79
2021/06/01 02:27:15;;;;;;;;;;;;;;;11.55;73.63;96869.90;1648636;87;20163;-81
2021/06/01 02:30:04;;;;;;;;;;;;;;;11.52;73.14;96864.06;1649096;86;20221;-80
2021/06/01 02:32:43;;;;;;;;;;;;;;;11.51;72.68;96860.59;1646514;87;20178;-80
2021/06/01 02:35:12;;;;;;;;;;;;;;;11.48;73.25;96853.44;1648771;85;20532;-81
2021/06/01 02:37:41;;;;;;;;;;;;;;;11.49;73.56;96853.79;1649552;86;20539;-81
2021/06/01 02:40:09;;;;;;;;;;;;;;;11.51;73.45;96859.74;1649287;86;20158;-79
2021/06/01 02:42:37;;;;;;;;;;;;;;;11.48;73.26;96856.08;1649683;87;20206;-78
2021/06/01 02:45:05;;;;;;;;;;;;;;;11.48;73.49;96860.86;1650317;86;20172;-81
2021/06/01 02:47:31;;;;;;;;;;;;;;;11.41;73.48;96858.41;1649937;87;20161;-81
2021/06/01 02:49:58;;;;;;;;;;;;;;;11.38;73.50;96863.95;1650007;86;20197;-83
2021/06/01 02:52:24;;;;;;;;;;;;;;;11.41;73.63;96863.19;1648071;86;20162;-81
2021/06/01 02:54:51;;;;;;;;;;;;;;;11.43;73.88;96861.76;1643813;86;20142;-80
2021/06/01 02:57:19;;;;;;;;;;;;;;;11.40;73.62;96864.19;1643694;86;20246;-82
2021/06/01 02:59:47;;;;;;;;;;;;;;;11.38;73.71;96867.91;1645705;86;20227;-80
2021/06/01 03:02:13;;;;;;;;;;;;;;;11.36;73.49;96868.05;1650241;86;20171;-81
2021/06/01 03:04:52;;;;;;;;;;;;;;;11.34;73.48;96872.62;1650790;86;20188;-80
2021/06/01 03:07:18;;;;;;;;;;;;;;;11.33;73.82;96868.80;1651092;86;20223;-79
2021/06/01 03:09:46;;;;;;;;;;;;;;;11.29;73.38;96864.28;1650862;86;20179;-80
2021/06/01 03:12:24;;;;;;;;;;;;;;;11.24;72.35;96866.47;1658093;85;20156;-81
2021/06/01 03:14:41;;;;;;;;;;;;;;;11.22;72.50;96865.79;1648420;85;20169;-81
2021/06/01 03:17:07;;;;;;;;;;;;;;;11.22;74.17;96877.66;1653890;86;20112;-82
2021/06/01 03:19:33;;;;;;;;;;;;;;;11.21;73.98;96878.13;1654087;86;20452;-81
2021/06/01 03:21:59;;;;;;;;;;;;;;;11.22;73.47;96875.84;1648349;85;20178;-82
2021/06/01 03:24:25;;;;;;;;;;;;;;;11.23;73.46;96882.80;1646560;87;20190;-79
2021/06/01 03:26:51;;;;;;;;;;;;;;;11.28;73.10;96878.91;1650172;87;20166;-80
2021/06/01 03:29:17;;;;;;;;;;;;;;;11.34;73.21;96871.80;1646276;87;20147;-79
2021/06/01 03:31:43;;;;;;;;;;;;;;;11.40;73.61;96881.81;1651630;87;20205;-81
2021/06/01 03:34:10;;;;;;;;;;;;;;;11.49;72.90;96872.27;1654133;86;20204;-79
2021/06/01 03:36:36;;;;;;;;;;;;;;;11.57;73.16;96876.38;1654126;86;20125;-81
2021/06/01 03:39:05;;;;;;;;;;;;;;;11.71;73.56;96884.41;1655255;86;20118;-82
2021/06/01 03:41:30;;;;;;;;;;;;;;;11.83;72.86;96875.87;1637414;87;20165;-80
2021/06/01 03:43:56;;;;;;;;;;;;;;;11.94;72.52;96878.88;1647621;86;20145;-81
2021/06/01 03:46:24;;;;;;;;;;;;;;;12.03;72.43;96879.40;1650517;87;20173;-82
2021/06/01 03:48:50;;;;;;;;;;;;;;;12.17;72.58;96880.33;1653785;86;20210;-83
2021/06/01 03:51:16;;;;;;;;;;;;;;;12.33;72.30;96876.28;1653319;87;20177;-80
2021/06/01 03:53:42;;;;;;;;;;;;;;;12.58;71.98;96874.88;1645146;86;20214;-86
2021/06/01 03:56:10;;;;;;;;;;;;;;;13.04;72.03;96872.39;1646552;87;20178;-87
2021/06/01 03:58:36;;;;;;;;;;;;;;;13.62;71.25;96866.53;1646290;87;20244;-86
2021/06/01 04:01:02;;;;;;;;;;;;;;;14.25;71.13;96871.98;1651928;87;20190;-87
2021/06/01 04:03:29;;;;;;;;;;;;;;;14.92;70.03;96869.70;1652512;86;20158;-84
2021/06/01 04:05:55;;;;;;;;;;;;;;;15.60;68.42;96876.50;1651598;87;20505;-85
2021/06/01 04:08:21;;;;;;;;;;;;;;;15.99;64.69;96872.00;1652330;85;20171;-80
2021/06/01 04:10:47;;;;;;;;;;;;;;;16.10;63.85;96876.17;1652121;84;20167;-81
2021/06/01 04:13:13;;;;;;;;;;;;;;;16.11;61.92;96875.69;1644994;87;20504;-86
2021/06/01 04:15:39;;;;;;;;;;;;;;;16.13;63.64;96875.03;1644984;87;20201;-86
2021/06/01 04:18:05;;;;;;;;;;;;;;;16.10;63.01;96875.35;1647481;86;20141;-88
2021/06/01 04:20:31;;;;;;;;;;;;;;;15.99;62.94;96877.83;1643862;87;20166;-86
2021/06/01 04:22:57;;;;;;;;;;;;;;;15.82;63.17;96879.09;1648485;87;20173;-80
2021/06/01 04:25:23;;;;;;;;;;;;;;;15.73;62.98;96877.41;1644997;87;20506;-82
2021/06/01 04:27:49;;;;;;;;;;;;;;;15.72;64.37;96873.08;1646457;87;20155;-83
2021/06/01 04:30:16;;;;;;;;;;;;;;;15.76;63.06;96871.27;1643308;87;20166;-80
2021/06/01 04:32:43;;;;;;;;;;;;;;;16.05;61.31;96874.52;1648623;87;20217;-87
2021/06/01 04:35:09;;;;;;;;;;;;;;;16.24;62.76;96867.56;1644984;87;20484;-87
2021/06/01 04:37:35;;;;;;;;;;;;;;;16.66;63.23;96868.89;1644766;87;20226;-84
2021/06/01 04:40:04;;;;;;;;;;;;;;;17.07;62.86;96866.73;1644746;86;20172;-80
2021/06/01 04:42:30;;;;;;;;;;;;;;;17.46;61.70;96868.09;1618512;88;20215;-86
2021/06/01 04:44:56;;;;;;;;;;;;;;;17.77;57.01;96859.80;1618712;88;20211;-83
2021/06/01 04:47:22;;;;;;;;;;;;;;;18.00;60.77;96865.20;1625113;87;20527;-81
2021/06/01 04:49:48;;;;;;;;;;;;;;;18.14;57.51;96866.27;1643068;86;20181;-81
2021/06/01 04:52:15;;;;;;;;;;;;;;;18.26;55.52;96862.20;1645431;87;20251;-84
2021/06/01 04:54:41;;;;;;;;;;;;;;;18.45;58.34;96868.55;1644959;86;20147;-85
2021/06/01 04:57:07;;;;;;;;;;;;;;;18.67;57.05;96870.38;1644867;86;20527;-86
2021/06/01 04:59:36;;;;;;;;;;;;;;;18.95;51.77;96872.98;1647959;86;20266;-88
2021/06/01 05:02:02;;;;;;;;;;;;;;;19.22;55.73;96876.90;1648718;87;20181;-83
2021/06/01 05:04:28;;;;;;;;;;;;;;;19.30;58.49;96878.14;1648650;87;20494;-81
2021/06/01 05:06:59;;;;;;;;;;;;;;;19.15;53.09;96875.98;1648338;87;20165;-83
2021/06/01 05:09:25;;;;;;;;;;;;;;;19.08;54.18;96876.36;1638006;87;20490;-86
2021/06/01 05:11:52;;;;;;;;;;;;;;;19.10;52.22;96878.35;1644013;86;20182;-85
2021/06/01 05:14:18;;;;;;;;;;;;;;;19.13;52.61;96872.13;1644971;87;20162;-81
2021/06/01 05:16:44;;;;;;;;;;;;;;;19.10;51.50;96881.02;1647865;86;20167;-81
2021/06/01 05:19:11;;;;;;;;;;;;;;;18.94;54.40;96882.01;1646340;87;20522;-79
2021/06/01 05:21:37;;;;;;;;;;;;;;;18.85;52.41;96886.06;1646317;86;20178;-83
2021/06/01 05:24:03;;;;;;;;;;;;;;;18.81;52.41;96881.27;1645519;87;20169;-83
2021/06/01 05:26:30;;;;;;;;;;;;;;;18.75;55.60;96888.67;1645110;86;20493;-86
2021/06/01 05:28:56;;;;;;;;;;;;;;;18.64;53.42;96889.94;1645215;86;20525;-85
2021/06/01 05:34:10;;;;;;;;;;;;;;;18.35;52.98;96890.97;1646392;87;20190;-80
2021/06/01 05:36:36;;;;;;;;;;;;;;;18.11;53.97;96891.95;1646537;86;20176;-86
2021/06/01 05:39:05;;;;;;;;;;;;;;;17.96;56.10;96887.87;1646574;87;20193;-83
2021/06/01 05:41:31;;;;;;;;;;;;;;;17.94;54.78;96885.88;1646446;87;20169;-80
2021/06/01 05:43:57;;;;;;;;;;;;;;;18.06;55.39;96893.81;1646343;86;20545;-81
2021/06/01 05:46:23;;;;;;;;;;;;;;;18.18;54.68;96889.42;1646565;86;20521;-85
2021/06/01 05:48:49;;;;;;;;;;;;;;;18.36;54.90;96892.63;1645683;86;20566;-84
2021/06/01 05:51:17;;;;;;;;;;;;;;;18.58;54.38;96885.63;1646566;86;20212;-85
2021/06/01 05:53:44;;;;;;;;;;;;;;;18.80;54.13;96891.13;1646512;87;20194;-82
2021/06/01 05:56:10;;;;;;;;;;;;;;;19.04;52.76;96891.44;1645744;86;20162;-83
2021/06/01 05:58:36;;;;;;;;;;;;;;;19.37;51.38;96896.10;1620575;88;20167;-84
2021/06/01 06:01:02;;;;;;;;;;;;;;;19.68;52.11;96891.08;1620502;88;20188;-86
2021/06/01 06:03:28;;;;;;;;;;;;;;;20.02;51.75;96897.19;1638805;87;20162;-82
2021/06/01 06:05:55;;;;;;;;;;;;;;;20.37;53.05;96896.02;1647573;87;20194;-79
2021/06/01 06:08:21;;;;;;;;;;;;;;;20.80;50.25;96894.36;1645477;86;20226;-80
2021/06/01 06:10:49;;;;;;;;;;;;;;;21.43;47.78;96894.41;1648261;87;20483;-81
2021/06/01 06:13:15;;;;;;;;;;;;;;;22.10;47.56;96895.23;1646541;87;20182;-86
2021/06/01 06:15:42;;;;;;;;;;;;;;;22.87;45.12;96899.85;1648178;87;20185;-82
2021/06/01 06:18:23;;;;;;;;;;;;;;;23.54;42.35;96892.23;1650370;87;20193;-84
2021/06/01 06:20:50;;;;;;;;;;;;;;;24.09;43.39;96895.06;1649632;87;20173;-81
2021/06/01 06:23:16;;;;;;;;;;;;;;;24.77;45.71;96897.69;1650425;87;20204;-83
2021/06/01 06:25:42;;;;;;;;;;;;;;;25.30;39.03;96894.22;1649387;86;20177;-84
2021/06/01 06:28:08;;;;;;;;;;;;;;;25.70;40.18;96879.00;1647089;87;20200;-85
2021/06/01 06:30:35;;;;;;;;;;;;;;;26.08;34.84;96879.27;1646890;87;20202;-83
2021/06/01 06:33:01;;;;;;;;;;;;;;;26.50;38.11;96869.86;1647247;87;20177;-82
2021/06/01 06:35:27;;;;;;;;;;;;;;;26.69;32.88;96868.42;1650627;87;20191;-80
2021/06/01 06:37:53;;;;;;;;;;;;;;;26.61;36.28;96880.93;1647750;87;20177;-83
2021/06/01 06:40:19;;;;;;;;;;;;;;;26.10;41.81;96879.89;1646949;87;20181;-84
2021/06/01 06:42:46;;;;;;;;;;;;;;;25.89;42.01;96881.17;1648462;87;20166;-87
2021/06/01 06:45:13;;;;;;;;;;;;;;;25.71;35.85;96876.60;1650091;87;20192;-85
2021/06/01 06:50:09;;;;;;;;;;;;;;;25.70;34.08;96883.05;1648209;87;20181;-87
2021/06/01 06:52:36;;;;;;;;;;;;;;;25.71;35.03;96876.06;1636935;87;20177;-82
2021/06/01 06:55:04;;;;;;;;;;;;;;;25.47;35.94;96879.16;1648128;87;20173;-83
2021/06/01 06:57:30;;;;;;;;;;;;;;;24.13;34.68;96889.57;1646291;87;20498;-83
2021/06/01 06:59:57;;;;;;;;;;;;;;;22.41;36.82;96885.86;1651039;87;20520;-81
2021/06/01 07:02:24;;;;;;;;;;;;;;;21.71;37.97;96883.34;1651489;86;20212;-83
2021/06/01 07:04:50;;;;;;;;;;;;;;;20.92;40.22;96885.31;1651115;87;20155;-84
2021/06/01 07:07:16;;;;;;;;;;;;;;;20.40;38.88;96889.45;1651703;87;20167;-86
2021/06/01 07:09:42;;;;;;;;;;;;;;;20.16;40.62;96891.48;1648177;86;20190;-84
2021/06/01 07:12:09;;;;;;;;;;;;;;;19.72;38.79;96892.38;1649965;86;20504;-79
2021/06/01 07:14:59;;;;;;;;;;;;;;;19.14;41.16;96903.18;1651872;86;20168;-80
2021/06/01 07:17:28;;;;;;;;;;;;;;;18.54;39.88;96894.16;1640406;86;20169;-82
2021/06/01 07:19:56;;;;;;;;;;;;;;;17.88;40.42;96891.40;1651477;86;20245;-87
2021/06/01 07:22:22;;;;;;;;;;;;;;;17.72;41.01;96893.63;1651972;86;20204;-81
2021/06/01 07:24:48;;;;;;;;;;;;;;;17.63;41.99;96893.34;1651232;86;20177;-84
2021/06/01 07:27:15;;;;;;;;;;;;;;;17.99;42.00;96889.38;1651385;87;20163;-84
2021/06/01 07:29:41;;;;;;;;;;;;;;;18.25;40.44;96884.55;1651498;85;20155;-85
2021/06/01 07:32:07;;;;;;;;;;;;;;;18.37;40.49;96894.30;1651729;86;20220;-85
2021/06/01 07:34:33;;;;;;;;;;;;;;;18.30;41.06;96891.17;1652590;85;20175;-85
2021/06/01 07:37:00;;;;;;;;;;;;;;;18.58;41.38;96892.81;1652375;87;20135;-83
2021/06/01 07:39:26;;;;;;;;;;;;;;;18.88;40.68;96890.23;1652904;86;20170;-81
2021/06/01 07:41:52;;;;;;;;;;;;;;;19.22;40.70;96895.60;1682408;85;20157;-81
2021/06/01 07:44:20;;;;;;;;;;;;;;;19.12;39.77;96886.50;1655293;87;20164;-84
2021/06/01 07:46:50;;;;;;;;;;;;;;;19.17;39.55;96889.95;1655368;87;20196;-83
2021/06/01 07:49:20;;;;;;;;;;;;;;;18.99;39.40;96888.47;1655067;86;20301;-84
2021/06/01 07:51:47;;;;;;;;;;;;;;;18.71;39.69;96900.22;1655108;86;20509;-87
2021/06/01 07:54:18;;;;;;;;;;;;;;;18.13;41.01;96893.13;1655092;86;20213;-94
2021/06/01 07:56:44;;;;;;;;;;;;;;;17.92;40.89;96894.55;1654778;85;20173;-86
2021/06/01 07:59:10;;;;;;;;;;;;;;;18.09;39.60;96890.81;1649478;86;20165;-87
2021/06/01 08:01:37;;;;;;;;;;;;;;;18.39;38.36;96894.95;1651286;87;20153;-88
2021/06/01 08:04:03;;;;;;;;;;;;;;;18.62;38.49;96890.09;1634459;87;20498;-88
2021/06/01 08:06:35;;;;;;;;;;;;;;;18.69;37.89;96911.08;1653503;87;20490;-85
2021/06/01 08:08:58;;;;;;;;;;;;;;;18.60;37.69;96899.30;1653160;87;20589;-91
2021/06/01 08:11:30;;;;;;;;;;;;;;;18.34;37.82;96901.83;1653989;87;20225;-86
2021/06/01 08:13:56;;;;;;;;;;;;;;;18.58;38.46;96908.31;1644169;85;20157;-86
2021/06/01 08:16:22;;;;;;;;;;;;;;;18.94;38.90;96902.88;1637712;88;20157;-86
2021/06/01 08:24:15;;;;;;;;;;;;;;;19.60;36.95;96899.52;1643713;86;20154;-90
2021/06/01 08:26:41;;;;;;;;;;;;;;;19.29;37.15;96899.71;1643722;86;20198;-92
2021/06/01 08:29:08;;;;;;;;;;;;;;;18.96;38.31;96900.02;1643927;87;20203;-90
2021/06/01 08:31:38;;;;;;;;;;;;;;;18.82;38.73;96895.78;1643663;87;20250;-87
2021/06/01 08:34:06;;;;;;;;;;;;;;;18.51;39.42;96898.55;1644127;86;20478;-85
2021/06/01 08:36:33;;;;;;;;;;;;;;;18.63;39.15;96896.28;1644558;86;20198;-90
2021/06/01 08:39:02;;;;;;;;;;;;;;;18.38;38.35;96905.78;1644165;86;20174;-89
2021/06/01 08:41:28;;;;;;;;;;;;;;;17.96;37.93;96901.20;1671297;84;20209;-88
2021/06/01 08:43:59;;;;;;;;;;;;;;;17.74;39.60;96902.30;1644619;86;20174;-87
2021/06/01 08:46:28;;;;;;;;;;;;;;;17.91;39.23;96897.69;1639939;86;20170;-91
2021/06/01 08:48:56;;;;;;;;;;;;;;;18.12;39.25;96906.14;1640045;86;20161;-88
2021/06/01 08:51:24;;;;;;;;;;;;;;;18.21;39.37;96909.08;1692439;82;20147;-85
2021/06/01 08:53:51;;;;;;;;;;;;;;;18.24;39.87;96896.70;1730099;83;20543;-85
2021/06/01 08:56:18;;;;;;;;;;;;;;;18.18;39.96;96908.09;1730329;82;20163;-86
2021/06/01 08:58:49;;;;;;;;;;;;;;;18.12;39.85;96915.47;1729973;83;20239;-86
2021/06/01 09:01:14;;;;;;;;;;;;;;;18.16;39.77;96911.43;1729962;83;20156;-87
2021/06/01 09:03:48;;;;;;;;;;;;;;;18.20;38.74;96912.23;1728156;83;20568;-87
2021/06/01 09:11:45;;;;;;;;;;;;;;;17.78;40.42;96906.77;1708584;83;20175;-88
2021/06/01 09:22:35;;;;;;;;;;;;;;;18.05;39.83;96912.67;1716418;83;20189;-85
2021/06/01 09:25:16;;;;;;;;;;;;;;;18.19;40.06;96901.75;1722462;83;20190;-85
2021/06/01 09:27:51;;;;;;;;;;;;;;;18.37;38.94;96920.16;1728336;83;20171;-85
2021/06/01 09:30:39;;;;;;;;;;;;;;;18.48;38.70;96910.91;1727297;83;20171;-86
2021/06/01 09:33:18;;;;;;;;;;;;;;;18.54;39.26;96918.19;1706354;83;20216;-88
2021/06/01 09:35:56;;;;;;;;;;;;;;;18.36;38.93;96927.31;1699091;84;20222;-88
2021/06/01 09:38:37;;;;;;;;;;;;;;;17.97;40.22;96934.86;1717918;83;20235;-89
2021/06/01 09:41:12;;;;;;;;;;;;;;;17.63;39.93;96929.31;1713953;83;20515;-83
2021/06/01 09:43:53;;;;;;;;;;;;;;;17.58;39.58;96929.83;1722565;83;20518;-83
2021/06/01 09:46:25;;;;;;;;;;;;;;;17.43;40.91;96939.03;1728323;83;20586;-85
2021/06/01 09:48:53;;;;;;;;;;;;;;;17.07;42.18;96931.45;1728388;83;20239;-83
2021/06/01 09:51:36;;;;;;;;;;;;;;;17.04;42.53;96933.10;1734601;82;20490;-89
2021/06/01 09:54:36;;;;;;;;;;;;;;;17.14;42.59;96931.61;1729142;82;20222;-85
2021/06/01 09:57:18;;;;;;;;;;;;;;;17.14;43.10;96932.42;1743641;82;20517;-84
2021/06/01 10:00:04;;;;;;;;;;;;;;;17.08;43.30;96942.44;1741617;82;20182;-82
2021/06/01 10:02:33;;;;;;;;;;;;;;;17.04;43.34;96921.64;1732721;82;20187;-82
2021/06/01 10:05:15;;;;;;;;;;;;;;;17.12;42.92;96925.62;1742736;82;20163;-85
2021/06/01 10:07:42;;;;;;;;;;;;;;;17.11;42.92;96931.94;1743598;82;20170;-88
2021/06/01 10:10:23;;;;;;;;;;;;;;;17.23;42.87;96931.08;1743458;82;20170;-89
2021/06/01 10:12:52;;;;;;;;;;;;;;;17.25;42.40;96925.94;1727933;82;20170;-88
2021/06/01 10:15:21;;;;;;;;;;;;;;;17.33;42.01;96927.25;1742923;82;20485;-86
2021/06/01 10:17:49;;;;;;;;;;;;;;;17.30;41.70;96926.77;1741819;82;20178;-84
2021/06/01 10:20:16;;;;;;;;;;;;;;;17.25;40.47;96922.42;1743313;82;20142;-86
2021/06/01 10:22:43;;;;;;;;;;;;;;;17.27;41.30;96912.44;1743319;82;20170;-81
2021/06/01 10:25:10;;;;;;;;;;;;;;;17.46;41.53;96922.72;1737639;82;20228;-82
2021/06/01 10:27:36;;;;;;;;;;;;;;;17.55;41.83;96922.69;1737377;82;20171;-84
2021/06/01 10:30:05;;;;;;;;;;;;;;;17.63;41.84;96924.80;1733415;82;20162;-84
2021/06/01 10:32:35;;;;;;;;;;;;;;;17.60;42.02;96919.84;1733282;82;20207;-85
2021/06/01 10:35:01;;;;;;;;;;;;;;;17.45;42.62;96919.72;1743229;82;20190;-83
2021/06/01 10:51:59;;;;;;;;;;;;;;;17.98;43.37;96913.86;1737632;82;20173;-85
2021/06/01 10:54:45;;;;;;;;;;;;;;;18.25;42.82;96926.38;1730301;83;20161;-83
2021/06/01 10:57:14;;;;;;;;;;;;;;;18.32;42.29;96923.36;1730431;82;20166;-85
2021/06/01 11:00:00;;;;;;;;;;;;;;;18.62;42.91;96923.46;1730421;83;20184;-84
2021/06/01 11:02:19;;;;;;;;;;;;;;;18.90;42.88;96920.23;1728698;80;20169;-87
2021/06/01 11:05:06;;;;;;;;;;;;;;;19.18;42.30;96925.02;1730393;83;20186;-87
2021/06/01 11:07:54;;;;;;;;;;;;;;;19.18;41.21;96926.35;1710001;83;20169;-83
2021/06/01 11:10:39;;;;;;;;;;;;;;;18.96;41.11;96927.57;1730457;82;20478;-87
2021/06/01 11:13:07;;;;;;;;;;;;;;;18.56;41.04;96921.52;1730477;82;20157;-86
2021/06/01 11:15:35;;;;;;;;;;;;;;;18.13;44.35;96921.95;1730486;83;20485;-83
2021/06/01 11:18:19;;;;;;;;;;;;;;;17.97;45.78;96930.05;1730588;83;20473;-86
2021/06/01 11:21:10;;;;;;;;;;;;;;;17.64;47.40;96920.33;1730532;83;20146;-85
2021/06/01 11:24:17;;;;;;;;;;;;;;;17.19;46.11;96926.59;1730505;81;20501;-85
2021/06/01 11:35:31;;;;;;;;;;;;;;;16.59;45.49;96922.44;1730513;82;20145;-86
2021/06/01 11:40:35;;;;;;;;;;;;;;;16.69;48.37;96924.44;1730675;82;20174;-85
2021/06/01 11:43:09;;;;;;;;;;;;;;;16.69;47.58;96919.97;1729784;81;20160;-86
2021/06/01 11:50:55;;;;;;;;;;;;;;;17.06;46.74;96924.45;1730808;83;20186;-86
2021/06/01 11:51:18;;;;;;;;;;;;;;;17.15;45.50;96926.62;1727345;82;20150;-85
2021/06/01 11:53:56;;;;;;;;;;;;;;;17.29;45.63;96920.59;1730415;83;20165;-85
2021/06/01 11:56:58;;;;;;;;;;;;;;;17.39;45.92;96913.75;1730562;83;20488;-87
2021/06/01 12:18:47;;;;;;;;;;;;;;;18.69;40.24;96931.59;1730359;82;20170;-85
2021/06/01 12:21:21;;;;;;;;;;;;;;;18.37;41.90;96937.50;1730441;83;20169;-87
2021/06/01 12:24:03;;;;;;;;;;;;;;;18.08;41.27;96939.81;1729882;81;20185;-87
2021/06/01 12:32:05;;;;;;;;;;;;;;;17.45;44.06;96972.16;1730356;83;20229;-85
2021/06/01 12:35:00;;;;;;;;;;;;;;;17.00;45.81;96969.06;1729898;82;20174;-85
2021/06/01 12:43:06;;;;;;;;;;;;;;;16.34;48.39;96984.42;1730502;83;20461;-83
2021/06/01 13:09:16;;;;;;;;;;;;;;;16.46;51.43;96985.45;1730549;83;20153;-82
2021/06/01 13:14:41;;;;;;;;;;;;;;;16.67;50.79;96987.16;1735344;82;20595;-83
2021/06/01 13:39:08;;;;;;;;;;;;;;;16.99;52.08;96984.70;1702246;83;20198;-84
2021/06/01 13:46:55;;;;;;;;;;;;;;;17.68;50.30;96971.45;1685882;85;20206;-82
2021/06/01 13:49:24;;;;;;;;;;;;;;;17.97;49.89;96974.86;1692733;85;20174;-84
2021/06/01 14:00:29;;;;;;;;;;;;;;;18.72;47.49;96978.78;1696341;82;20184;-84
2021/06/01 14:19:32;;;;;;;;;;;;;;;19.73;44.08;96985.77;1722510;82;20529;-82
2021/06/01 14:30:09;;;;;;;;;;;;;;;19.77;44.64;96979.02;1751181;82;20150;-85
2021/06/01 15:32:41;;;;;;;;;;;;;;;17.98;44.40;96991.19;1670943;84;20166;-91
2021/06/01 16:21:53;;;;;;;;;;;;;;;17.43;50.55;97022.14;1700658;84;20255;-88
2021/06/01 16:32:53;;;;;;;;;;;;;;;;;;;;;
2021/06/01 17:05:08;;;;;;;;;;;;;;;15.88;56.24;97068.50;1654051;85;20269;-87
2021/06/01 17:13:07;;;;;;;;;;;;;;;15.69;56.10;97068.67;1654460;86;20225;-90
2021/06/01 17:15:37;;;;;;;;;;;;;;;15.64;56.40;97076.30;1654236;87;20259;-90
2021/06/01 17:18:30;;;;;;;;;;;;;;;15.57;55.80;97067.59;1654402;87;20151;-85
2021/06/01 17:31:51;;;;;;;;;;;;;;;15.33;56.18;97092.15;1654316;87;20139;-86
2021/06/01 17:34:58;;;;;;;;;;;;;;;15.30;56.77;97091.15;1653529;86;20175;-90
2021/06/01 17:36:47;;;;;;;;;;;;;;;15.25;55.80;97098.24;1644181;87;20166;-85
2021/06/01 17:39:14;;;;;;;;;;;;;;;15.22;55.54;97096.39;1654448;87;20191;-90
2021/06/01 17:41:40;;;;;;;;;;;;;;;15.16;56.26;97104.47;1654293;87;20515;-86
2021/06/01 17:44:08;;;;;;;;;;;;;;;15.10;56.86;97109.03;1654458;87;20190;-86
2021/06/01 17:46:37;;;;;;;;;;;;;;;15.05;57.35;97106.02;1654861;87;20176;-91
2021/06/01 17:49:07;;;;;;;;;;;;;;;15.04;54.76;97115.78;1654425;87;20163;-85
2021/06/01 17:51:34;;;;;;;;;;;;;;;15.00;57.26;97119.73;1654974;87;20187;-84
2021/06/01 17:54:04;;;;;;;;;;;;;;;14.93;57.30;97127.46;1677112;85;20222;-93
2021/06/01 17:56:34;;;;;;;;;;;;;;;14.90;53.80;97132.23;1685288;85;20171;-91
2021/06/01 17:59:03;;;;;;;;;;;;;;;14.83;56.34;97127.54;1685422;85;20175;-87
2021/06/01 18:01:33;;;;;;;;;;;;;;;14.76;56.32;97129.59;1685380;85;20268;-86
2021/06/01 18:04:00;;;;;;;;;;;;;;;14.68;56.30;97132.98;1685203;84;20195;-86
2021/06/01 18:06:32;;;;;;;;;;;;;;;14.60;57.13;97128.88;1685634;85;20167;-85
2021/06/01 18:09:14;;;;;;;;;;;;;;;14.50;57.64;97134.25;1685061;85;20147;-86
2021/06/01 18:41:35;;;;;;;;;;;;;;;13.59;56.68;97170.07;1684202;85;20550;-86
2021/06/01 19:50:55;;;;;;;;;;;;;;;11.98;63.62;97240.38;1568854;91;20575;-87
2021/06/01 19:53:31;;;;;;;;;;;;;;;11.94;64.76;97237.62;1554430;90;20203;-91
2021/06/01 19:55:57;;;;;;;;;;;;;;;11.91;64.39;97238.37;1583496;90;20208;-85
2021/06/01 19:58:23;;;;;;;;;;;;;;;11.85;62.10;97229.97;1597164;90;20505;-85
2021/06/01 20:00:50;;;;;;;;;;;;;;;11.80;64.43;97234.81;1590459;90;20170;-84
2021/06/01 20:03:20;;;;;;;;;;;;;;;11.75;65.40;97234.34;1632991;85;20209;-85
2021/06/01 20:05:47;;;;;;;;;;;;;;;11.68;64.13;97237.14;1654193;87;20194;-84
2021/06/01 20:08:16;;;;;;;;;;;;;;;11.61;63.02;97234.66;1659335;85;20481;-84
2021/06/01 20:10:50;;;;;;;;;;;;;;;11.53;63.24;97233.50;1638751;85;20172;-85
2021/06/01 20:13:17;;;;;;;;;;;;;;;11.47;63.28;97247.17;1649337;86;20173;-84
2021/06/01 20:15:45;;;;;;;;;;;;;;;11.40;63.18;97243.37;1633492;86;20174;-84